sensor_id;sensor_type;location;lat;lon;timestamp;pressure;altitude;pressure_sealevel;temperature;humidity
57904;BME280;43720;47.462;19.030;2023-11-22T04:54:51;100299.62;;;4.99;100.00
57904;BME280;43720;47.462;19.030;2023-11-22T04:57:54;100310.72;;;4.95;100.00
57904;BME280;43720;47.462;19.030;2023-11-22T05:00:57;100316.62;;;4.91;100.00
57904;BME280;43720;47.462;19.030;2023-11-22T05:03:59;100315.84;;;4.94;100.00
57904;BME280;43720;47.462;19.030;2023-11-22T05:07:02;100313.75;;;4.83;100.00
57904;BME280;43720;47.462;19.030;2023-11-22T05:10:06;100322.81;;;4.72;100.00
57904;BME280;43720;47.462;19.030;2023-11-22T05:13:11;100317.44;;;4.66;100.00
57904;BME280;43720;47.462;19.030;2023-11-22T05:16:13;100324.50;;;4.70;100.00
57904;BME280;43720;47.462;19.030;2023-11-22T05:19:15;100336.56;;;4.70;100.00
57904;BME280;43720;47.462;19.030;2023-11-22T05:22:18;100340.47;;;4.82;100.00
57904;BME280;43720;47.462;19.030;2023-11-22T05:25:20;100345.63;;;4.81;100.00
57904;BME280;43720;47.462;19.030;2023-11-22T05:28:23;100348.81;;;4.74;100.00
57904;BME280;43720;47.462;19.030;2023-11-22T05:31:25;100341.94;;;4.76;100.00
57904;BME280;43720;47.462;19.030;2023-11-22T05:34:29;100352.44;;;4.79;100.00
57904;BME280;43720;47.462;19.030;2023-11-22T05:37:31;100359.78;;;4.68;100.00
57904;BME280;43720;47.462;19.030;2023-11-22T05:40:33;100366.94;;;4.74;100.00
57904;BME280;43720;47.462;19.030;2023-11-22T05:43:36;100366.75;;;4.69;100.00
57904;BME280;43720;47.462;19.030;2023-11-22T05:46:39;100378.63;;;4.64;100.00
57904;BME280;43720;47.462;19.030;2023-11-22T05:49:41;100379.00;;;4.51;100.00
57904;BME280;43720;47.462;19.030;2023-11-22T05:52:44;100388.63;;;4.32;100.00
57904;BME280;43720;47.462;19.030;2023-11-22T05:55:47;100389.56;;;4.34;100.00
57904;BME280;43720;47.462;19.030;2023-11-22T05:58:52;100393.78;;;4.32;100.00
57904;BME280;43720;47.462;19.030;2023-11-22T06:01:54;100400.81;;;4.14;100.00
57904;BME280;43720;47.462;19.030;2023-11-22T06:04:57;100394.75;;;4.13;100.00
57904;BME280;43720;47.462;19.030;2023-11-22T06:07:59;100401.47;;;4.08;100.00
57904;BME280;43720;47.462;19.030;2023-11-22T06:11:02;100405.56;;;4.03;100.00
57904;BME280;43720;47.462;19.030;2023-11-22T06:14:05;100409.66;;;3.98;100.00
57904;BME280;43720;47.462;19.030;2023-11-22T06:17:08;100417.50;;;4.00;100.00
57904;BME280;43720;47.462;19.030;2023-11-22T06:20:10;100423.87;;;4.08;100.00
57904;BME280;43720;47.462;19.030;2023-11-22T06:23:13;100427.00;;;4.01;100.00
57904;BME280;43720;47.462;19.030;2023-11-22T06:26:15;100433.16;;;4.03;100.00
57904;BME280;43720;47.462;19.030;2023-11-22T06:29:18;100441.66;;;4.00;100.00
57904;BME280;43720;47.462;19.030;2023-11-22T06:32:20;100455.53;;;4.23;100.00
57904;BME280;43720;47.462;19.030;2023-11-22T06:35:23;100448.78;;;4.27;100.00
57904;BME280;43720;47.462;19.030;2023-11-22T06:38:25;100455.38;;;4.41;100.00
57904;BME280;43720;47.462;19.030;2023-11-22T06:41:28;100463.94;;;4.38;100.00
57904;BME280;43720;47.462;19.030;2023-11-22T06:44:31;100474.97;;;4.34;100.00
57904;BME280;43720;47.462;19.030;2023-11-22T06:47:33;100476.03;;;4.39;100.00
57904;BME280;43720;47.462;19.030;2023-11-22T06:50:36;100481.78;;;4.53;100.00
57904;BME280;43720;47.462;19.030;2023-11-22T06:53:38;100489.78;;;4.59;100.00
57904;BME280;43720;47.462;19.030;2023-11-22T06:56:40;100482.72;;;4.55;100.00
57904;BME280;43720;47.462;19.030;2023-11-22T06:59:43;100485.25;;;4.54;100.00
57904;BME280;43720;47.462;19.030;2023-11-22T07:02:45;100490.09;;;4.67;100.00
57904;BME280;43720;47.462;19.030;2023-11-22T07:05:48;100498.25;;;4.76;100.00
57904;BME280;43720;47.462;19.030;2023-11-22T07:08:50;100506.81;;;4.75;100.00
57904;BME280;43720;47.462;19.030;2023-11-22T07:11:53;100509.34;;;4.74;100.00
57904;BME280;43720;47.462;19.030;2023-11-22T07:14:56;100515.00;;;4.86;100.00
57904;BME280;43720;47.462;19.030;2023-11-22T07:17:59;100527.91;;;4.84;100.00
57904;BME280;43720;47.462;19.030;2023-11-22T07:21:01;100521.19;;;4.89;100.00
57904;BME280;43720;47.462;19.030;2023-11-22T07:24:06;100535.34;;;4.98;100.00
57904;BME280;43720;47.462;19.030;2023-11-22T07:27:14;100526.31;;;5.10;100.00
57904;BME280;43720;47.462;19.030;2023-11-22T07:30:17;100524.81;;;5.15;100.00
57904;BME280;43720;47.462;19.030;2023-11-22T07:33:24;100528.22;;;5.14;100.00
57904;BME280;43720;47.462;19.030;2023-11-22T07:36:28;100530.09;;;5.19;100.00
57904;BME280;43720;47.462;19.030;2023-11-22T07:39:30;100533.62;;;5.21;100.00
57904;BME280;43720;47.462;19.030;2023-11-22T07:42:35;100526.50;;;5.37;100.00
57904;BME280;43720;47.462;19.030;2023-11-22T07:45:37;100528.31;;;5.40;100.00
57904;BME280;43720;47.462;19.030;2023-11-22T07:48:41;100531.66;;;5.60;100.00
57904;BME280;43720;47.462;19.030;2023-11-22T07:51:44;100531.97;;;5.69;100.00
57904;BME280;43720;47.462;19.030;2023-11-22T07:54:49;100535.75;;;5.77;100.00
57904;BME280;43720;47.462;19.030;2023-11-22T07:57:52;100536.53;;;5.99;100.00
57904;BME280;43720;47.462;19.030;2023-11-22T08:00:55;100551.28;;;6.00;100.00
57904;BME280;43720;47.462;19.030;2023-11-22T08:03:58;100548.19;;;6.10;100.00
57904;BME280;43720;47.462;19.030;2023-11-22T08:07:00;100545.09;;;6.20;100.00
57904;BME280;43720;47.462;19.030;2023-11-22T08:10:04;100552.19;;;6.26;100.00
57904;BME280;43720;47.462;19.030;2023-11-22T08:13:11;100557.53;;;6.30;100.00
57904;BME280;43720;47.462;19.030;2023-11-22T08:16:14;100560.47;;;6.40;100.00
57904;BME280;43720;47.462;19.030;2023-11-22T08:19:16;100564.41;;;6.54;100.00
57904;BME280;43720;47.462;19.030;2023-11-22T08:22:19;100567.25;;;6.61;100.00
57904;BME280;43720;47.462;19.030;2023-11-22T08:25:21;100572.06;;;6.76;100.00
57904;BME280;43720;47.462;19.030;2023-11-22T08:28:23;100571.50;;;6.85;100.00
57904;BME280;43720;47.462;19.030;2023-11-22T08:31:26;100573.06;;;7.07;100.00
57904;BME280;43720;47.462;19.030;2023-11-22T08:34:28;100582.06;;;7.17;100.00
57904;BME280;43720;47.462;19.030;2023-11-22T08:37:30;100583.94;;;7.22;100.00
57904;BME280;43720;47.462;19.030;2023-11-22T08:40:37;100580.50;;;7.23;100.00
57904;BME280;43720;47.462;19.030;2023-11-22T08:43:39;100580.50;;;7.23;100.00
57904;BME280;43720;47.462;19.030;2023-11-22T08:46:42;100573.28;;;7.42;100.00
57904;BME280;43720;47.462;19.030;2023-11-22T08:49:45;100580.94;;;7.37;100.00
57904;BME280;43720;47.462;19.030;2023-11-22T08:52:50;100581.72;;;7.34;100.00
57904;BME280;43720;47.462;19.030;2023-11-22T08:55:55;100591.44;;;7.40;100.00
57904;BME280;43720;47.462;19.030;2023-11-22T08:58:58;100593.03;;;7.64;100.00
57904;BME280;43720;47.462;19.030;2023-11-22T09:02:00;100586.34;;;7.73;100.00
57904;BME280;43720;47.462;19.030;2023-11-22T09:05:03;100579.87;;;7.89;100.00
57904;BME280;43720;47.462;19.030;2023-11-22T09:08:09;100576.44;;;7.90;100.00
57904;BME280;43720;47.462;19.030;2023-11-22T09:11:27;100582.41;;;7.86;100.00
57904;BME280;43720;47.462;19.030;2023-11-22T09:14:30;100581.94;;;8.01;100.00
57904;BME280;43720;47.462;19.030;2023-11-22T09:17:32;100581.16;;;8.03;100.00
57904;BME280;43720;47.462;19.030;2023-11-22T09:20:35;100580.56;;;8.14;100.00
57904;BME280;43720;47.462;19.030;2023-11-22T09:23:37;100588.72;;;8.26;100.00
57904;BME280;43720;47.462;19.030;2023-11-22T09:26:40;100589.69;;;8.29;100.00
57904;BME280;43720;47.462;19.030;2023-11-22T09:29:44;100593.63;;;8.47;100.00
57904;BME280;43720;47.462;19.030;2023-11-22T09:32:47;100604.31;;;8.56;99.37
57904;BME280;43720;47.462;19.030;2023-11-22T09:35:49;100605.81;;;8.48;99.04
57904;BME280;43720;47.462;19.030;2023-11-22T09:38:53;100611.50;;;8.66;99.00
57904;BME280;43720;47.462;19.030;2023-11-22T09:41:55;100615.72;;;8.61;97.25
57904;BME280;43720;47.462;19.030;2023-11-22T09:44:58;100605.53;;;8.70;96.48
57904;BME280;43720;47.462;19.030;2023-11-22T09:48:02;100617.31;;;8.89;96.01
57904;BME280;43720;47.462;19.030;2023-11-22T09:54:13;100623.69;;;9.00;95.70
57904;BME280;43720;47.462;19.030;2023-11-22T09:57:24;100624.56;;;9.01;94.43
57904;BME280;43720;47.462;19.030;2023-11-22T10:00:28;100625.62;;;9.09;94.19
57904;BME280;43720;47.462;19.030;2023-11-22T10:03:38;100621.53;;;9.20;94.71
57904;BME280;43720;47.462;19.030;2023-11-22T10:06:41;100625.69;;;9.11;93.31
57904;BME280;43720;47.462;19.030;2023-11-22T10:09:48;100621.53;;;9.20;94.25
57904;BME280;43720;47.462;19.030;2023-11-22T10:12:53;100620.88;;;9.29;93.52
57904;BME280;43720;47.462;19.030;2023-11-22T10:16:10;100627.88;;;9.30;94.18
57904;BME280;43720;47.462;19.030;2023-11-22T10:19:17;100632.34;;;9.36;93.71
57904;BME280;43720;47.462;19.030;2023-11-22T10:22:21;100629.63;;;9.31;92.52
57904;BME280;43720;47.462;19.030;2023-11-22T10:25:24;100631.56;;;9.40;91.76
57904;BME280;43720;47.462;19.030;2023-11-22T10:28:27;100635.94;;;9.41;92.57
57904;BME280;43720;47.462;19.030;2023-11-22T10:31:30;100645.91;;;9.57;92.99
57904;BME280;43720;47.462;19.030;2023-11-22T10:34:33;100653.22;;;9.36;92.14
57904;BME280;43720;47.462;19.030;2023-11-22T10:37:35;100653.09;;;8.95;95.38
57904;BME280;43720;47.462;19.030;2023-11-22T10:40:38;100658.34;;;8.63;96.37
57904;BME280;43720;47.462;19.030;2023-11-22T10:43:40;100674.47;;;8.48;97.50
57904;BME280;43720;47.462;19.030;2023-11-22T10:46:47;100680.00;;;8.30;97.72
57904;BME280;43720;47.462;19.030;2023-11-22T10:49:49;100687.78;;;8.29;99.85
57904;BME280;43720;47.462;19.030;2023-11-22T10:52:53;100694.41;;;8.18;99.87
57904;BME280;43720;47.462;19.030;2023-11-22T10:59:12;100688.37;;;8.20;100.00
57904;BME280;43720;47.462;19.030;2023-11-22T11:02:18;100690.84;;;8.16;100.00
57904;BME280;43720;47.462;19.030;2023-11-22T11:05:27;100687.28;;;8.12;100.00
57904;BME280;43720;47.462;19.030;2023-11-22T11:08:33;100702.88;;;8.11;100.00
57904;BME280;43720;47.462;19.030;2023-11-22T11:11:37;100715.00;;;8.10;100.00
57904;BME280;43720;47.462;19.030;2023-11-22T11:14:42;100721.75;;;8.03;100.00
57904;BME280;43720;47.462;19.030;2023-11-22T11:18:01;100732.34;;;8.09;100.00
57904;BME280;43720;47.462;19.030;2023-11-22T11:21:09;100725.53;;;8.15;100.00
57904;BME280;43720;47.462;19.030;2023-11-22T11:24:14;100727.22;;;8.13;100.00
57904;BME280;43720;47.462;19.030;2023-11-22T11:27:17;100729.22;;;8.21;100.00
57904;BME280;43720;47.462;19.030;2023-11-22T11:30:41;100731.00;;;8.24;100.00
57904;BME280;43720;47.462;19.030;2023-11-22T11:36:53;100734.44;;;8.21;100.00
57904;BME280;43720;47.462;19.030;2023-11-22T11:39:59;100722.50;;;8.29;100.00
57904;BME280;43720;47.462;19.030;2023-11-22T11:43:02;100725.25;;;8.34;100.00
57904;BME280;43720;47.462;19.030;2023-11-22T11:46:07;100736.03;;;8.45;100.00
57904;BME280;43720;47.462;19.030;2023-11-22T11:57:30;100731.31;;;8.63;100.00
57904;BME280;43720;47.462;19.030;2023-11-22T12:00:33;100723.88;;;8.77;99.62
57904;BME280;43720;47.462;19.030;2023-11-22T12:03:36;100727.38;;;8.77;100.00
57904;BME280;43720;47.462;19.030;2023-11-22T12:06:38;100737.03;;;8.81;100.00
57904;BME280;43720;47.462;19.030;2023-11-22T12:09:42;100728.00;;;9.02;99.08
57904;BME280;43720;47.462;19.030;2023-11-22T12:12:44;100737.34;;;8.94;100.00
57904;BME280;43720;47.462;19.030;2023-11-22T12:15:48;100735.78;;;8.99;100.00
57904;BME280;43720;47.462;19.030;2023-11-22T12:18:50;100742.16;;;9.10;97.36
57904;BME280;43720;47.462;19.030;2023-11-22T12:21:54;100735.13;;;9.07;97.71
57904;BME280;43720;47.462;19.030;2023-11-22T12:24:56;100744.91;;;9.16;98.13
57904;BME280;43720;47.462;19.030;2023-11-22T12:27:59;100751.84;;;9.16;98.84
57904;BME280;43720;47.462;19.030;2023-11-22T12:31:09;100755.75;;;9.31;96.43
57904;BME280;43720;47.462;19.030;2023-11-22T12:34:14;100761.19;;;9.41;91.99
57904;BME280;43720;47.462;19.030;2023-11-22T12:37:17;100760.31;;;9.40;90.40
57904;BME280;43720;47.462;19.030;2023-11-22T12:40:20;100757.56;;;9.34;91.27
57904;BME280;43720;47.462;19.030;2023-11-22T12:43:23;100766.37;;;9.39;90.70
57904;BME280;43720;47.462;19.030;2023-11-22T12:46:46;100773.59;;;9.49;90.08
57904;BME280;43720;47.462;19.030;2023-11-22T12:49:51;100783.22;;;9.52;91.08
57904;BME280;43720;47.462;19.030;2023-11-22T12:52:54;100784.75;;;9.44;90.08
57904;BME280;43720;47.462;19.030;2023-11-22T12:55:56;100795.06;;;9.38;91.50
57904;BME280;43720;47.462;19.030;2023-11-22T12:58:59;100783.88;;;9.43;90.63
57904;BME280;43720;47.462;19.030;2023-11-22T13:02:02;100792.75;;;9.50;90.04
57904;BME280;43720;47.462;19.030;2023-11-22T13:05:05;100796.37;;;9.22;90.92
57904;BME280;43720;47.462;19.030;2023-11-22T13:08:14;100790.97;;;9.14;91.23
57904;BME280;43720;47.462;19.030;2023-11-22T13:11:18;100804.91;;;9.16;91.29
57904;BME280;43720;47.462;19.030;2023-11-22T13:14:21;100810.25;;;9.21;94.03
57904;BME280;43720;47.462;19.030;2023-11-22T13:17:23;100812.31;;;9.01;91.99
57904;BME280;43720;47.462;19.030;2023-11-22T13:20:26;100818.12;;;8.91;93.08
57904;BME280;43720;47.462;19.030;2023-11-22T13:23:29;100803.81;;;8.76;93.22
57904;BME280;43720;47.462;19.030;2023-11-22T13:26:31;100804.81;;;8.81;92.42
57904;BME280;43720;47.462;19.030;2023-11-22T13:29:34;100811.56;;;8.75;93.26
57904;BME280;43720;47.462;19.030;2023-11-22T13:32:36;100803.84;;;8.78;93.12
57904;BME280;43720;47.462;19.030;2023-11-22T13:35:39;100804.66;;;8.75;92.70
57904;BME280;43720;47.462;19.030;2023-11-22T13:38:42;100798.31;;;8.67;94.52
57904;BME280;43720;47.462;19.030;2023-11-22T13:41:45;100802.84;;;8.73;95.37
57904;BME280;43720;47.462;19.030;2023-11-22T13:44:48;100797.50;;;8.68;95.01
57904;BME280;43720;47.462;19.030;2023-11-22T13:47:52;100808.72;;;8.66;96.59
57904;BME280;43720;47.462;19.030;2023-11-22T13:50:59;100821.97;;;8.73;95.37
57904;BME280;43720;47.462;19.030;2023-11-22T13:54:02;100826.97;;;8.67;96.17
57904;BME280;43720;47.462;19.030;2023-11-22T13:57:05;100823.59;;;8.70;96.24
57904;BME280;43720;47.462;19.030;2023-11-22T14:00:09;100824.44;;;8.69;95.23
57904;BME280;43720;47.462;19.030;2023-11-22T14:03:13;100833.87;;;8.65;95.30
57904;BME280;43720;47.462;19.030;2023-11-22T14:06:16;100850.13;;;8.56;97.05
57904;BME280;43720;47.462;19.030;2023-11-22T14:09:19;100852.31;;;8.43;98.28
57904;BME280;43720;47.462;19.030;2023-11-22T14:12:22;100845.72;;;8.27;98.47
57904;BME280;43720;47.462;19.030;2023-11-22T14:15:24;100841.00;;;8.15;99.03
57904;BME280;43720;47.462;19.030;2023-11-22T14:18:26;100842.72;;;8.15;98.91
57904;BME280;43720;47.462;19.030;2023-11-22T14:21:29;100846.84;;;8.08;98.82
57904;BME280;43720;47.462;19.030;2023-11-22T14:24:34;100836.16;;;7.99;99.00
57904;BME280;43720;47.462;19.030;2023-11-22T14:27:44;100844.06;;;8.02;99.33
57904;BME280;43720;47.462;19.030;2023-11-22T14:30:46;100852.66;;;7.99;99.65
57904;BME280;43720;47.462;19.030;2023-11-22T14:33:49;100862.03;;;7.94;100.00
57904;BME280;43720;47.462;19.030;2023-11-22T14:36:51;100877.66;;;7.94;100.00
57904;BME280;43720;47.462;19.030;2023-11-22T14:39:54;100887.72;;;7.83;99.74
57904;BME280;43720;47.462;19.030;2023-11-22T14:42:56;100892.84;;;7.82;100.00
57904;BME280;43720;47.462;19.030;2023-11-22T14:45:59;100899.62;;;7.77;100.00
57904;BME280;43720;47.462;19.030;2023-11-22T14:49:01;100895.19;;;7.74;100.00
57904;BME280;43720;47.462;19.030;2023-11-22T14:52:04;100907.97;;;7.67;100.00
57904;BME280;43720;47.462;19.030;2023-11-22T14:55:06;100901.84;;;7.66;100.00
57904;BME280;43720;47.462;19.030;2023-11-22T14:58:09;100899.97;;;7.62;100.00
57904;BME280;43720;47.462;19.030;2023-11-22T15:01:11;100912.56;;;7.50;100.00
57904;BME280;43720;47.462;19.030;2023-11-22T15:04:14;100912.78;;;7.56;100.00
57904;BME280;43720;47.462;19.030;2023-11-22T15:07:17;100901.44;;;7.54;100.00
57904;BME280;43720;47.462;19.030;2023-11-22T15:10:20;100917.59;;;7.45;100.00
57904;BME280;43720;47.462;19.030;2023-11-22T15:13:27;100915.84;;;7.44;100.00
57904;BME280;43720;47.462;19.030;2023-11-22T15:16:30;100916.34;;;7.34;100.00
57904;BME280;43720;47.462;19.030;2023-11-22T15:19:34;100917.66;;;7.23;100.00
57904;BME280;43720;47.462;19.030;2023-11-22T15:22:40;100924.59;;;7.22;100.00
57904;BME280;43720;47.462;19.030;2023-11-22T15:25:43;100927.84;;;7.17;100.00
57904;BME280;43720;47.462;19.030;2023-11-22T15:28:45;100925.69;;;7.29;100.00
57904;BME280;43720;47.462;19.030;2023-11-22T15:31:48;100938.31;;;7.18;100.00
57904;BME280;43720;47.462;19.030;2023-11-22T15:34:51;100939.84;;;7.13;100.00
57904;BME280;43720;47.462;19.030;2023-11-22T15:37:53;100936.00;;;7.03;100.00
57904;BME280;43720;47.462;19.030;2023-11-22T15:40:57;100943.62;;;6.99;100.00
57904;BME280;43720;47.462;19.030;2023-11-22T15:44:16;100951.19;;;6.93;100.00
57904;BME280;43720;47.462;19.030;2023-11-22T15:47:19;100959.81;;;6.92;99.71
57904;BME280;43720;47.462;19.030;2023-11-22T15:50:21;100965.31;;;6.77;100.00
57904;BME280;43720;47.462;19.030;2023-11-22T15:53:24;100962.78;;;6.78;100.00
57904;BME280;43720;47.462;19.030;2023-11-22T15:56:26;100959.47;;;6.82;99.35
57904;BME280;43720;47.462;19.030;2023-11-22T15:59:29;100972.37;;;6.81;99.87
57904;BME280;43720;47.462;19.030;2023-11-22T16:02:31;100994.78;;;6.77;100.00
57904;BME280;43720;47.462;19.030;2023-11-22T16:05:34;101008.28;;;6.90;99.09
57904;BME280;43720;47.462;19.030;2023-11-22T16:08:36;101006.47;;;6.89;96.60
57904;BME280;43720;47.462;19.030;2023-11-22T16:11:39;101014.81;;;7.02;96.98
57904;BME280;43720;47.462;19.030;2023-11-22T16:14:41;101023.87;;;6.90;99.21
57904;BME280;43720;47.462;19.030;2023-11-22T16:17:43;101023.56;;;6.82;98.50
57904;BME280;43720;47.462;19.030;2023-11-22T16:20:46;101029.69;;;6.84;100.00
57904;BME280;43720;47.462;19.030;2023-11-22T16:23:48;101025.50;;;6.87;98.15
57904;BME280;43720;47.462;19.030;2023-11-22T16:26:51;101036.78;;;6.88;95.22
57904;BME280;43720;47.462;19.030;2023-11-22T16:29:54;101031.75;;;6.93;94.09
57904;BME280;43720;47.462;19.030;2023-11-22T16:32:57;101045.97;;;7.01;93.04
57904;BME280;43720;47.462;19.030;2023-11-22T16:36:00;101059.94;;;7.04;93.69
